sensor_id;sensor_type;location;lat;lon;timestamp;P1;durP1;ratioP1;P2;durP2;ratioP2
23222;SDS011;11780;13.904;100.620;2023-05-18T00:01:30;20.80;;;18.77;;
23222;SDS011;11780;13.904;100.620;2023-05-18T00:04:00;27.47;;;20.17;;
23222;SDS011;11780;13.904;100.620;2023-05-18T00:06:32;23.80;;;19.05;;
23222;SDS011;11780;13.904;100.620;2023-05-18T00:09:04;24.20;;;18.77;;
23222;SDS011;11780;13.904;100.620;2023-05-18T00:11:34;24.10;;;19.17;;
23222;SDS011;11780;13.904;100.620;2023-05-18T00:14:09;23.15;;;19.38;;
23222;SDS011;11780;13.904;100.620;2023-05-18T00:16:39;26.03;;;18.50;;
23222;SDS011;11780;13.904;100.620;2023-05-18T00:19:10;22.33;;;18.67;;
23222;SDS011;11780;13.904;100.620;2023-05-18T00:21:43;26.85;;;19.77;;
23222;SDS011;11780;13.904;100.620;2023-05-18T00:24:15;20.10;;;17.85;;
23222;SDS011;11780;13.904;100.620;2023-05-18T00:26:47;21.67;;;18.67;;
23222;SDS011;11780;13.904;100.620;2023-05-18T00:29:18;22.35;;;18.80;;
23222;SDS011;11780;13.904;100.620;2023-05-18T00:31:49;27.85;;;20.17;;
23222;SDS011;11780;13.904;100.620;2023-05-18T00:34:20;23.10;;;19.23;;
23222;SDS011;11780;13.904;100.620;2023-05-18T00:36:51;22.83;;;18.55;;
23222;SDS011;11780;13.904;100.620;2023-05-18T00:39:21;24.93;;;19.20;;
23222;SDS011;11780;13.904;100.620;2023-05-18T00:41:51;22.40;;;18.52;;
23222;SDS011;11780;13.904;100.620;2023-05-18T00:44:23;20.77;;;18.65;;
23222;SDS011;11780;13.904;100.620;2023-05-18T00:46:53;23.75;;;18.73;;
23222;SDS011;11780;13.904;100.620;2023-05-18T00:49:24;23.80;;;18.97;;
23222;SDS011;11780;13.904;100.620;2023-05-18T00:51:56;21.73;;;18.80;;
23222;SDS011;11780;13.904;100.620;2023-05-18T00:54:27;22.75;;;18.67;;
23222;SDS011;11780;13.904;100.620;2023-05-18T00:56:57;22.07;;;19.07;;
23222;SDS011;11780;13.904;100.620;2023-05-18T00:59:31;24.45;;;18.08;;
23222;SDS011;11780;13.904;100.620;2023-05-18T01:02:04;23.20;;;19.98;;
23222;SDS011;11780;13.904;100.620;2023-05-18T01:04:35;24.67;;;18.70;;
23222;SDS011;11780;13.904;100.620;2023-05-18T01:07:09;23.98;;;19.33;;
23222;SDS011;11780;13.904;100.620;2023-05-18T01:09:41;23.55;;;18.83;;
23222;SDS011;11780;13.904;100.620;2023-05-18T01:12:16;25.85;;;18.75;;
23222;SDS011;11780;13.904;100.620;2023-05-18T01:14:58;19.45;;;17.48;;
23222;SDS011;11780;13.904;100.620;2023-05-18T01:17:38;21.58;;;18.92;;
23222;SDS011;11780;13.904;100.620;2023-05-18T01:20:43;24.33;;;18.65;;
23222;SDS011;11780;13.904;100.620;2023-05-18T01:28:44;21.30;;;19.05;;
23222;SDS011;11780;13.904;100.620;2023-05-18T01:31:15;20.85;;;18.52;;
23222;SDS011;11780;13.904;100.620;2023-05-18T01:33:46;21.25;;;17.70;;
23222;SDS011;11780;13.904;100.620;2023-05-18T01:36:16;21.70;;;18.73;;
23222;SDS011;11780;13.904;100.620;2023-05-18T01:38:47;21.35;;;18.50;;
23222;SDS011;11780;13.904;100.620;2023-05-18T01:41:25;26.52;;;18.92;;
23222;SDS011;11780;13.904;100.620;2023-05-18T01:44:14;19.85;;;17.77;;
23222;SDS011;11780;13.904;100.620;2023-05-18T01:46:59;22.70;;;18.60;;
23222;SDS011;11780;13.904;100.620;2023-05-18T01:52:32;21.00;;;18.17;;
23222;SDS011;11780;13.904;100.620;2023-05-18T01:55:07;19.02;;;17.02;;
23222;SDS011;11780;13.904;100.620;2023-05-18T01:57:40;20.55;;;18.40;;
23222;SDS011;11780;13.904;100.620;2023-05-18T02:00:15;21.02;;;17.42;;
23222;SDS011;11780;13.904;100.620;2023-05-18T02:02:47;21.65;;;18.60;;
23222;SDS011;11780;13.904;100.620;2023-05-18T02:05:18;24.95;;;18.00;;
23222;SDS011;11780;13.904;100.620;2023-05-18T02:07:48;24.03;;;18.50;;
23222;SDS011;11780;13.904;100.620;2023-05-18T02:10:19;21.92;;;17.13;;
23222;SDS011;11780;13.904;100.620;2023-05-18T02:12:49;20.88;;;18.67;;
23222;SDS011;11780;13.904;100.620;2023-05-18T02:15:21;20.83;;;18.42;;
23222;SDS011;11780;13.904;100.620;2023-05-18T02:17:52;22.23;;;18.00;;
23222;SDS011;11780;13.904;100.620;2023-05-18T02:20:26;20.45;;;18.20;;
23222;SDS011;11780;13.904;100.620;2023-05-18T02:23:02;19.60;;;17.60;;
23222;SDS011;11780;13.904;100.620;2023-05-18T02:25:33;22.88;;;18.55;;
23222;SDS011;11780;13.904;100.620;2023-05-18T02:28:05;22.65;;;18.35;;
23222;SDS011;11780;13.904;100.620;2023-05-18T02:30:36;22.08;;;18.30;;
23222;SDS011;11780;13.904;100.620;2023-05-18T02:33:08;19.77;;;17.70;;
23222;SDS011;11780;13.904;100.620;2023-05-18T02:35:39;20.48;;;18.48;;
23222;SDS011;11780;13.904;100.620;2023-05-18T02:38:10;19.53;;;17.53;;
23222;SDS011;11780;13.904;100.620;2023-05-18T02:40:41;23.58;;;18.95;;
23222;SDS011;11780;13.904;100.620;2023-05-18T02:43:13;20.10;;;17.92;;
23222;SDS011;11780;13.904;100.620;2023-05-18T02:45:43;24.27;;;18.90;;
23222;SDS011;11780;13.904;100.620;2023-05-18T02:48:17;23.15;;;19.15;;
23222;SDS011;11780;13.904;100.620;2023-05-18T02:50:48;20.33;;;16.33;;
23222;SDS011;11780;13.904;100.620;2023-05-18T02:53:19;19.73;;;17.58;;
23222;SDS011;11780;13.904;100.620;2023-05-18T02:55:54;21.13;;;18.40;;
23222;SDS011;11780;13.904;100.620;2023-05-18T02:58:42;20.35;;;17.92;;
23222;SDS011;11780;13.904;100.620;2023-05-18T03:01:20;18.20;;;16.30;;
23222;SDS011;11780;13.904;100.620;2023-05-18T03:03:55;18.67;;;16.92;;
23222;SDS011;11780;13.904;100.620;2023-05-18T03:06:29;23.75;;;17.83;;
23222;SDS011;11780;13.904;100.620;2023-05-18T03:09:00;19.57;;;17.57;;
23222;SDS011;11780;13.904;100.620;2023-05-18T03:11:38;21.10;;;17.48;;
23222;SDS011;11780;13.904;100.620;2023-05-18T03:14:09;20.70;;;18.50;;
23222;SDS011;11780;13.904;100.620;2023-05-18T03:16:39;19.77;;;17.87;;
23222;SDS011;11780;13.904;100.620;2023-05-18T03:19:13;21.85;;;18.80;;
23222;SDS011;11780;13.904;100.620;2023-05-18T03:21:44;20.90;;;18.58;;
23222;SDS011;11780;13.904;100.620;2023-05-18T03:24:19;27.45;;;19.10;;
23222;SDS011;11780;13.904;100.620;2023-05-18T03:26:50;20.60;;;18.23;;
23222;SDS011;11780;13.904;100.620;2023-05-18T03:29:24;20.08;;;17.40;;
23222;SDS011;11780;13.904;100.620;2023-05-18T03:32:00;21.48;;;17.67;;
23222;SDS011;11780;13.904;100.620;2023-05-18T03:34:31;20.25;;;16.92;;
23222;SDS011;11780;13.904;100.620;2023-05-18T03:37:02;21.10;;;17.88;;
23222;SDS011;11780;13.904;100.620;2023-05-18T03:39:32;19.33;;;16.90;;
23222;SDS011;11780;13.904;100.620;2023-05-18T03:44:34;21.30;;;18.30;;
23222;SDS011;11780;13.904;100.620;2023-05-18T03:47:05;22.73;;;17.92;;
23222;SDS011;11780;13.904;100.620;2023-05-18T03:49:37;20.55;;;18.25;;
23222;SDS011;11780;13.904;100.620;2023-05-18T03:52:08;20.97;;;18.77;;
23222;SDS011;11780;13.904;100.620;2023-05-18T03:54:38;20.10;;;17.20;;
23222;SDS011;11780;13.904;100.620;2023-05-18T03:57:11;19.52;;;17.48;;
23222;SDS011;11780;13.904;100.620;2023-05-18T03:59:42;19.63;;;16.75;;
23222;SDS011;11780;13.904;100.620;2023-05-18T04:02:13;21.63;;;18.00;;
23222;SDS011;11780;13.904;100.620;2023-05-18T04:04:46;20.83;;;17.77;;
23222;SDS011;11780;13.904;100.620;2023-05-18T04:07:16;20.08;;;17.98;;
23222;SDS011;11780;13.904;100.620;2023-05-18T04:09:47;19.57;;;17.60;;
23222;SDS011;11780;13.904;100.620;2023-05-18T04:12:18;19.50;;;17.23;;
23222;SDS011;11780;13.904;100.620;2023-05-18T04:14:48;20.40;;;18.33;;
23222;SDS011;11780;13.904;100.620;2023-05-18T04:17:19;20.23;;;18.10;;
23222;SDS011;11780;13.904;100.620;2023-05-18T04:19:52;23.17;;;18.17;;
23222;SDS011;11780;13.904;100.620;2023-05-18T04:22:23;20.43;;;17.60;;
23222;SDS011;11780;13.904;100.620;2023-05-18T04:24:54;19.80;;;17.70;;
23222;SDS011;11780;13.904;100.620;2023-05-18T04:27:25;19.65;;;17.88;;
23222;SDS011;11780;13.904;100.620;2023-05-18T04:29:57;19.52;;;17.48;;
23222;SDS011;11780;13.904;100.620;2023-05-18T04:32:28;22.48;;;18.48;;
23222;SDS011;11780;13.904;100.620;2023-05-18T04:35:05;20.60;;;18.25;;
23222;SDS011;11780;13.904;100.620;2023-05-18T04:37:36;23.90;;;18.33;;
23222;SDS011;11780;13.904;100.620;2023-05-18T04:40:16;21.00;;;18.83;;
23222;SDS011;11780;13.904;100.620;2023-05-18T04:42:48;21.17;;;17.90;;
23222;SDS011;11780;13.904;100.620;2023-05-18T04:45:25;21.23;;;18.25;;
23222;SDS011;11780;13.904;100.620;2023-05-18T04:50:28;23.58;;;19.65;;
23222;SDS011;11780;13.904;100.620;2023-05-18T04:52:58;20.27;;;18.10;;
23222;SDS011;11780;13.904;100.620;2023-05-18T04:55:32;21.35;;;18.30;;
23222;SDS011;11780;13.904;100.620;2023-05-18T04:58:06;25.73;;;18.88;;
23222;SDS011;11780;13.904;100.620;2023-05-18T05:00:38;21.58;;;19.27;;
23222;SDS011;11780;13.904;100.620;2023-05-18T05:03:09;21.40;;;18.75;;
23222;SDS011;11780;13.904;100.620;2023-05-18T05:05:41;20.88;;;18.75;;
23222;SDS011;11780;13.904;100.620;2023-05-18T05:08:11;19.30;;;16.33;;
23222;SDS011;11780;13.904;100.620;2023-05-18T05:10:42;23.40;;;18.23;;
23222;SDS011;11780;13.904;100.620;2023-05-18T05:13:13;21.52;;;19.20;;
23222;SDS011;11780;13.904;100.620;2023-05-18T05:15:43;20.63;;;18.20;;
23222;SDS011;11780;13.904;100.620;2023-05-18T05:18:14;20.87;;;18.70;;
23222;SDS011;11780;13.904;100.620;2023-05-18T05:20:44;19.80;;;17.80;;
23222;SDS011;11780;13.904;100.620;2023-05-18T05:23:15;20.33;;;17.52;;
23222;SDS011;11780;13.904;100.620;2023-05-18T05:25:46;20.48;;;17.60;;
23222;SDS011;11780;13.904;100.620;2023-05-18T05:28:16;25.10;;;18.53;;
23222;SDS011;11780;13.904;100.620;2023-05-18T05:30:47;18.60;;;16.73;;
23222;SDS011;11780;13.904;100.620;2023-05-18T05:33:17;20.00;;;17.03;;
23222;SDS011;11780;13.904;100.620;2023-05-18T05:35:47;21.80;;;18.10;;
23222;SDS011;11780;13.904;100.620;2023-05-18T05:38:18;20.95;;;17.50;;
23222;SDS011;11780;13.904;100.620;2023-05-18T05:40:49;19.45;;;17.23;;
23222;SDS011;11780;13.904;100.620;2023-05-18T05:43:19;19.27;;;17.13;;
23222;SDS011;11780;13.904;100.620;2023-05-18T05:45:50;22.83;;;17.40;;
23222;SDS011;11780;13.904;100.620;2023-05-18T05:48:21;18.33;;;16.60;;
23222;SDS011;11780;13.904;100.620;2023-05-18T05:50:51;19.58;;;17.63;;
23222;SDS011;11780;13.904;100.620;2023-05-18T05:53:22;19.52;;;17.63;;
23222;SDS011;11780;13.904;100.620;2023-05-18T05:55:53;19.92;;;17.60;;
23222;SDS011;11780;13.904;100.620;2023-05-18T05:58:24;20.40;;;17.30;;
23222;SDS011;11780;13.904;100.620;2023-05-18T06:00:59;21.50;;;17.15;;
23222;SDS011;11780;13.904;100.620;2023-05-18T06:03:31;22.08;;;17.77;;
23222;SDS011;11780;13.904;100.620;2023-05-18T06:06:08;18.60;;;16.73;;
23222;SDS011;11780;13.904;100.620;2023-05-18T06:08:41;22.15;;;17.92;;
23222;SDS011;11780;13.904;100.620;2023-05-18T06:11:17;21.88;;;17.77;;
23222;SDS011;11780;13.904;100.620;2023-05-18T06:13:50;18.42;;;16.50;;
23222;SDS011;11780;13.904;100.620;2023-05-18T06:16:23;21.25;;;16.88;;
23222;SDS011;11780;13.904;100.620;2023-05-18T06:18:57;20.17;;;17.65;;
23222;SDS011;11780;13.904;100.620;2023-05-18T06:21:30;19.88;;;17.88;;
23222;SDS011;11780;13.904;100.620;2023-05-18T06:24:03;19.20;;;17.02;;
23222;SDS011;11780;13.904;100.620;2023-05-18T06:30:19;19.23;;;17.23;;
23222;SDS011;11780;13.904;100.620;2023-05-18T06:33:15;21.25;;;17.15;;
23222;SDS011;11780;13.904;100.620;2023-05-18T06:35:47;21.40;;;17.95;;
23222;SDS011;11780;13.904;100.620;2023-05-18T06:38:21;20.23;;;17.40;;
23222;SDS011;11780;13.904;100.620;2023-05-18T06:40:53;20.17;;;17.73;;
23222;SDS011;11780;13.904;100.620;2023-05-18T06:43:46;21.85;;;18.25;;
23222;SDS011;11780;13.904;100.620;2023-05-18T06:46:28;20.10;;;18.08;;
23222;SDS011;11780;13.904;100.620;2023-05-18T06:49:11;22.25;;;18.60;;
23222;SDS011;11780;13.904;100.620;2023-05-18T06:51:44;23.00;;;18.80;;
23222;SDS011;11780;13.904;100.620;2023-05-18T06:54:16;19.83;;;17.73;;
23222;SDS011;11780;13.904;100.620;2023-05-18T06:56:48;21.30;;;19.08;;
23222;SDS011;11780;13.904;100.620;2023-05-18T06:59:21;20.23;;;17.42;;
23222;SDS011;11780;13.904;100.620;2023-05-18T07:01:53;20.45;;;17.48;;
23222;SDS011;11780;13.904;100.620;2023-05-18T07:04:29;19.85;;;17.77;;
23222;SDS011;11780;13.904;100.620;2023-05-18T07:07:00;20.95;;;17.73;;
23222;SDS011;11780;13.904;100.620;2023-05-18T07:09:30;19.05;;;17.25;;
23222;SDS011;11780;13.904;100.620;2023-05-18T07:12:00;22.33;;;17.73;;
23222;SDS011;11780;13.904;100.620;2023-05-18T07:14:31;19.90;;;16.67;;
23222;SDS011;11780;13.904;100.620;2023-05-18T07:17:02;21.70;;;18.50;;
23222;SDS011;11780;13.904;100.620;2023-05-18T07:19:33;20.15;;;18.15;;
23222;SDS011;11780;13.904;100.620;2023-05-18T07:22:03;21.52;;;18.17;;
23222;SDS011;11780;13.904;100.620;2023-05-18T07:24:36;22.13;;;18.48;;
23222;SDS011;11780;13.904;100.620;2023-05-18T07:27:06;19.73;;;17.73;;
23222;SDS011;11780;13.904;100.620;2023-05-18T07:29:37;18.40;;;16.37;;
23222;SDS011;11780;13.904;100.620;2023-05-18T07:32:08;18.42;;;16.63;;
23222;SDS011;11780;13.904;100.620;2023-05-18T07:34:39;20.43;;;16.73;;
23222;SDS011;11780;13.904;100.620;2023-05-18T07:37:15;19.30;;;17.40;;
23222;SDS011;11780;13.904;100.620;2023-05-18T07:39:45;20.80;;;16.83;;
23222;SDS011;11780;13.904;100.620;2023-05-18T07:42:15;18.43;;;16.03;;
23222;SDS011;11780;13.904;100.620;2023-05-18T07:44:47;20.40;;;17.03;;
23222;SDS011;11780;13.904;100.620;2023-05-18T07:47:19;18.92;;;15.93;;
23222;SDS011;11780;13.904;100.620;2023-05-18T07:49:50;19.63;;;17.52;;
23222;SDS011;11780;13.904;100.620;2023-05-18T07:52:20;19.87;;;17.00;;
23222;SDS011;11780;13.904;100.620;2023-05-18T07:54:51;19.07;;;17.07;;
23222;SDS011;11780;13.904;100.620;2023-05-18T07:57:23;22.42;;;16.83;;
23222;SDS011;11780;13.904;100.620;2023-05-18T07:59:55;20.80;;;17.17;;
23222;SDS011;11780;13.904;100.620;2023-05-18T08:02:25;18.73;;;16.83;;
23222;SDS011;11780;13.904;100.620;2023-05-18T08:04:59;21.58;;;17.58;;
23222;SDS011;11780;13.904;100.620;2023-05-18T08:07:30;22.93;;;18.50;;
23222;SDS011;11780;13.904;100.620;2023-05-18T08:10:02;21.83;;;17.85;;
23222;SDS011;11780;13.904;100.620;2023-05-18T08:12:32;22.40;;;18.42;;
23222;SDS011;11780;13.904;100.620;2023-05-18T08:15:04;22.92;;;19.45;;
23222;SDS011;11780;13.904;100.620;2023-05-18T08:17:35;23.70;;;18.13;;
23222;SDS011;11780;13.904;100.620;2023-05-18T08:20:06;23.33;;;18.27;;
23222;SDS011;11780;13.904;100.620;2023-05-18T08:25:07;21.52;;;19.25;;
23222;SDS011;11780;13.904;100.620;2023-05-18T08:30:36;20.73;;;18.40;;
23222;SDS011;11780;13.904;100.620;2023-05-18T08:33:07;23.77;;;19.52;;
23222;SDS011;11780;13.904;100.620;2023-05-18T08:35:37;23.70;;;19.15;;
23222;SDS011;11780;13.904;100.620;2023-05-18T08:38:08;22.50;;;20.10;;
23222;SDS011;11780;13.904;100.620;2023-05-18T08:40:42;21.10;;;19.03;;
23222;SDS011;11780;13.904;100.620;2023-05-18T08:43:24;23.70;;;18.30;;
23222;SDS011;11780;13.904;100.620;2023-05-18T08:46:20;20.80;;;18.48;;
23222;SDS011;11780;13.904;100.620;2023-05-18T08:48:53;20.13;;;17.95;;
23222;SDS011;11780;13.904;100.620;2023-05-18T08:51:27;20.40;;;17.30;;
23222;SDS011;11780;13.904;100.620;2023-05-18T08:54:02;22.52;;;18.50;;
23222;SDS011;11780;13.904;100.620;2023-05-18T08:56:36;21.25;;;18.75;;
23222;SDS011;11780;13.904;100.620;2023-05-18T08:59:08;25.42;;;19.27;;
23222;SDS011;11780;13.904;100.620;2023-05-18T09:01:40;20.90;;;18.55;;
23222;SDS011;11780;13.904;100.620;2023-05-18T09:04:11;20.92;;;18.67;;
23222;SDS011;11780;13.904;100.620;2023-05-18T09:06:42;20.75;;;18.20;;
23222;SDS011;11780;13.904;100.620;2023-05-18T09:09:14;19.27;;;17.27;;
23222;SDS011;11780;13.904;100.620;2023-05-18T09:11:44;19.88;;;17.83;;
23222;SDS011;11780;13.904;100.620;2023-05-18T09:14:16;21.13;;;18.85;;
23222;SDS011;11780;13.904;100.620;2023-05-18T09:19:17;23.77;;;18.70;;
23222;SDS011;11780;13.904;100.620;2023-05-18T09:21:48;18.27;;;16.40;;
23222;SDS011;11780;13.904;100.620;2023-05-18T09:24:19;20.73;;;18.58;;
23222;SDS011;11780;13.904;100.620;2023-05-18T09:26:51;20.60;;;18.38;;
23222;SDS011;11780;13.904;100.620;2023-05-18T09:29:21;21.20;;;19.05;;
23222;SDS011;11780;13.904;100.620;2023-05-18T09:31:52;24.90;;;18.55;;
23222;SDS011;11780;13.904;100.620;2023-05-18T09:34:26;22.10;;;19.75;;
23222;SDS011;11780;13.904;100.620;2023-05-18T09:37:09;20.13;;;18.02;;
23222;SDS011;11780;13.904;100.620;2023-05-18T09:39:40;21.27;;;19.10;;
23222;SDS011;11780;13.904;100.620;2023-05-18T09:42:11;21.38;;;19.10;;
23222;SDS011;11780;13.904;100.620;2023-05-18T09:44:42;23.63;;;19.77;;
23222;SDS011;11780;13.904;100.620;2023-05-18T09:47:14;22.75;;;19.40;;
23222;SDS011;11780;13.904;100.620;2023-05-18T09:49:46;21.50;;;18.20;;
23222;SDS011;11780;13.904;100.620;2023-05-18T09:52:17;21.45;;;19.08;;
23222;SDS011;11780;13.904;100.620;2023-05-18T09:54:57;23.07;;;18.80;;
23222;SDS011;11780;13.904;100.620;2023-05-18T09:57:37;19.88;;;17.25;;
23222;SDS011;11780;13.904;100.620;2023-05-18T10:00:16;22.02;;;19.70;;
23222;SDS011;11780;13.904;100.620;2023-05-18T10:02:51;22.48;;;20.15;;
23222;SDS011;11780;13.904;100.620;2023-05-18T10:05:24;22.58;;;20.25;;
23222;SDS011;11780;13.904;100.620;2023-05-18T10:07:58;22.77;;;20.02;;
23222;SDS011;11780;13.904;100.620;2023-05-18T10:10:29;21.70;;;18.63;;
23222;SDS011;11780;13.904;100.620;2023-05-18T10:12:59;21.53;;;19.07;;
23222;SDS011;11780;13.904;100.620;2023-05-18T10:15:30;22.33;;;19.38;;
23222;SDS011;11780;13.904;100.620;2023-05-18T10:18:01;21.08;;;18.77;;
23222;SDS011;11780;13.904;100.620;2023-05-18T10:20:34;24.33;;;19.10;;
23222;SDS011;11780;13.904;100.620;2023-05-18T10:23:05;24.00;;;18.60;;
23222;SDS011;11780;13.904;100.620;2023-05-18T10:25:36;20.80;;;18.70;;
23222;SDS011;11780;13.904;100.620;2023-05-18T10:28:08;24.50;;;21.00;;
23222;SDS011;11780;13.904;100.620;2023-05-18T10:30:40;24.10;;;20.17;;
23222;SDS011;11780;13.904;100.620;2023-05-18T10:33:12;22.88;;;20.52;;
23222;SDS011;11780;13.904;100.620;2023-05-18T10:35:55;21.30;;;19.10;;
23222;SDS011;11780;13.904;100.620;2023-05-18T10:38:27;21.77;;;19.42;;
23222;SDS011;11780;13.904;100.620;2023-05-18T10:40:58;26.40;;;19.77;;
23222;SDS011;11780;13.904;100.620;2023-05-18T10:43:29;21.63;;;19.40;;
23222;SDS011;11780;13.904;100.620;2023-05-18T10:46:02;22.17;;;19.23;;
23222;SDS011;11780;13.904;100.620;2023-05-18T10:48:38;25.48;;;19.45;;
23222;SDS011;11780;13.904;100.620;2023-05-18T10:51:09;20.80;;;18.17;;
23222;SDS011;11780;13.904;100.620;2023-05-18T10:53:39;22.83;;;18.77;;
23222;SDS011;11780;13.904;100.620;2023-05-18T10:56:15;24.27;;;19.88;;
23222;SDS011;11780;13.904;100.620;2023-05-18T10:58:46;23.50;;;19.85;;
23222;SDS011;11780;13.904;100.620;2023-05-18T11:01:17;21.75;;;18.83;;
23222;SDS011;11780;13.904;100.620;2023-05-18T11:03:48;26.15;;;19.48;;
23222;SDS011;11780;13.904;100.620;2023-05-18T11:06:22;22.33;;;19.67;;
23222;SDS011;11780;13.904;100.620;2023-05-18T11:08:53;23.02;;;19.27;;
23222;SDS011;11780;13.904;100.620;2023-05-18T11:11:23;21.08;;;18.00;;
23222;SDS011;11780;13.904;100.620;2023-05-18T11:13:59;22.42;;;19.90;;
23222;SDS011;11780;13.904;100.620;2023-05-18T11:16:31;22.85;;;18.40;;
23222;SDS011;11780;13.904;100.620;2023-05-18T11:19:05;22.88;;;18.38;;
23222;SDS011;11780;13.904;100.620;2023-05-18T11:27:00;19.15;;;17.23;;
23222;SDS011;11780;13.904;100.620;2023-05-18T11:29:40;24.00;;;18.48;;
23222;SDS011;11780;13.904;100.620;2023-05-18T11:32:25;20.80;;;18.10;;
23222;SDS011;11780;13.904;100.620;2023-05-18T11:34:59;21.13;;;18.65;;
23222;SDS011;11780;13.904;100.620;2023-05-18T11:40:10;24.25;;;19.13;;
23222;SDS011;11780;13.904;100.620;2023-05-18T11:42:44;22.63;;;19.42;;
23222;SDS011;11780;13.904;100.620;2023-05-18T11:45:27;21.20;;;19.05;;
23222;SDS011;11780;13.904;100.620;2023-05-18T11:48:00;21.50;;;18.73;;
23222;SDS011;11780;13.904;100.620;2023-05-18T11:50:32;22.00;;;19.45;;
23222;SDS011;11780;13.904;100.620;2023-05-18T11:53:02;24.50;;;19.08;;
23222;SDS011;11780;13.904;100.620;2023-05-18T11:55:36;20.83;;;18.63;;
23222;SDS011;11780;13.904;100.620;2023-05-18T11:58:07;21.90;;;19.65;;
23222;SDS011;11780;13.904;100.620;2023-05-18T12:00:39;19.90;;;17.92;;
23222;SDS011;11780;13.904;100.620;2023-05-18T12:03:10;23.67;;;18.73;;
23222;SDS011;11780;13.904;100.620;2023-05-18T12:05:42;21.42;;;18.05;;
23222;SDS011;11780;13.904;100.620;2023-05-18T12:08:17;21.25;;;18.15;;
23222;SDS011;11780;13.904;100.620;2023-05-18T12:10:49;23.90;;;19.58;;
23222;SDS011;11780;13.904;100.620;2023-05-18T12:13:20;25.42;;;18.35;;
23222;SDS011;11780;13.904;100.620;2023-05-18T12:15:52;21.50;;;19.23;;
23222;SDS011;11780;13.904;100.620;2023-05-18T12:18:26;19.98;;;17.55;;
23222;SDS011;11780;13.904;100.620;2023-05-18T12:20:58;26.98;;;19.67;;
23222;SDS011;11780;13.904;100.620;2023-05-18T12:23:36;22.42;;;18.77;;
23222;SDS011;11780;13.904;100.620;2023-05-18T12:26:09;21.30;;;18.33;;
23222;SDS011;11780;13.904;100.620;2023-05-18T12:28:40;22.83;;;18.17;;
23222;SDS011;11780;13.904;100.620;2023-05-18T12:31:10;21.90;;;19.40;;
23222;SDS011;11780;13.904;100.620;2023-05-18T12:33:41;25.50;;;20.60;;
23222;SDS011;11780;13.904;100.620;2023-05-18T12:36:12;25.10;;;21.27;;
23222;SDS011;11780;13.904;100.620;2023-05-18T12:38:46;24.80;;;19.70;;
23222;SDS011;11780;13.904;100.620;2023-05-18T13:03:57;23.83;;;20.40;;
23222;SDS011;11780;13.904;100.620;2023-05-18T13:06:28;24.45;;;21.08;;
23222;SDS011;11780;13.904;100.620;2023-05-18T13:08:58;23.23;;;20.70;;
23222;SDS011;11780;13.904;100.620;2023-05-18T13:11:28;25.98;;;20.88;;
23222;SDS011;11780;13.904;100.620;2023-05-18T13:14:00;24.08;;;20.92;;
23222;SDS011;11780;13.904;100.620;2023-05-18T13:16:38;25.52;;;21.05;;
23222;SDS011;11780;13.904;100.620;2023-05-18T13:19:15;27.33;;;20.88;;
23222;SDS011;11780;13.904;100.620;2023-05-18T13:21:54;23.92;;;20.85;;
23222;SDS011;11780;13.904;100.620;2023-05-18T13:24:25;28.30;;;20.83;;
23222;SDS011;11780;13.904;100.620;2023-05-18T13:29:26;26.00;;;20.40;;
23222;SDS011;11780;13.904;100.620;2023-05-18T13:31:57;31.67;;;20.50;;
23222;SDS011;11780;13.904;100.620;2023-05-18T13:34:27;21.47;;;19.17;;
23222;SDS011;11780;13.904;100.620;2023-05-18T13:36:57;25.67;;;19.52;;
23222;SDS011;11780;13.904;100.620;2023-05-18T13:39:29;24.67;;;20.13;;
23222;SDS011;11780;13.904;100.620;2023-05-18T13:41:59;24.57;;;19.63;;
23222;SDS011;11780;13.904;100.620;2023-05-18T13:44:31;22.00;;;18.83;;
23222;SDS011;11780;13.904;100.620;2023-05-18T13:47:02;22.83;;;19.50;;
23222;SDS011;11780;13.904;100.620;2023-05-18T13:49:32;23.13;;;18.97;;
23222;SDS011;11780;13.904;100.620;2023-05-18T13:52:03;26.00;;;20.00;;
23222;SDS011;11780;13.904;100.620;2023-05-18T13:54:33;23.50;;;19.45;;
23222;SDS011;11780;13.904;100.620;2023-05-18T13:57:04;24.00;;;19.20;;
23222;SDS011;11780;13.904;100.620;2023-05-18T13:59:36;21.05;;;18.65;;
23222;SDS011;11780;13.904;100.620;2023-05-18T14:02:06;21.35;;;19.13;;
23222;SDS011;11780;13.904;100.620;2023-05-18T14:04:36;23.33;;;18.07;;
23222;SDS011;11780;13.904;100.620;2023-05-18T14:07:07;21.63;;;19.23;;
23222;SDS011;11780;13.904;100.620;2023-05-18T14:09:38;21.50;;;17.63;;
23222;SDS011;11780;13.904;100.620;2023-05-18T14:12:08;21.43;;;19.20;;
23222;SDS011;11780;13.904;100.620;2023-05-18T14:19:42;20.43;;;18.30;;
23222;SDS011;11780;13.904;100.620;2023-05-18T14:22:12;21.47;;;17.83;;
23222;SDS011;11780;13.904;100.620;2023-05-18T14:24:44;22.00;;;17.38;;
23222;SDS011;11780;13.904;100.620;2023-05-18T14:27:15;19.83;;;17.77;;
23222;SDS011;11780;13.904;100.620;2023-05-18T14:29:45;19.87;;;17.83;;
23222;SDS011;11780;13.904;100.620;2023-05-18T14:32:16;19.73;;;16.65;;
23222;SDS011;11780;13.904;100.620;2023-05-18T14:34:49;19.60;;;17.60;;
23222;SDS011;11780;13.904;100.620;2023-05-18T14:37:23;24.10;;;17.13;;
23222;SDS011;11780;13.904;100.620;2023-05-18T14:39:54;21.38;;;17.42;;
23222;SDS011;11780;13.904;100.620;2023-05-18T14:42:24;21.13;;;17.40;;
23222;SDS011;11780;13.904;100.620;2023-05-18T14:44:55;21.67;;;17.93;;
23222;SDS011;11780;13.904;100.620;2023-05-18T14:47:25;19.07;;;16.80;;
23222;SDS011;11780;13.904;100.620;2023-05-18T14:49:56;19.13;;;17.03;;
23222;SDS011;11780;13.904;100.620;2023-05-18T14:52:26;19.47;;;16.47;;
23222;SDS011;11780;13.904;100.620;2023-05-18T14:54:57;18.83;;;16.17;;
23222;SDS011;11780;13.904;100.620;2023-05-18T14:57:27;18.43;;;16.60;;
23222;SDS011;11780;13.904;100.620;2023-05-18T14:59:57;22.93;;;16.83;;
23222;SDS011;11780;13.904;100.620;2023-05-18T15:04:59;17.80;;;15.93;;
23222;SDS011;11780;13.904;100.620;2023-05-18T15:07:29;18.30;;;16.45;;
23222;SDS011;11780;13.904;100.620;2023-05-18T15:09:59;18.47;;;15.87;;
23222;SDS011;11780;13.904;100.620;2023-05-18T15:12:30;22.38;;;16.98;;
23222;SDS011;11780;13.904;100.620;2023-05-18T15:15:00;20.77;;;16.10;;
23222;SDS011;11780;13.904;100.620;2023-05-18T15:17:30;17.33;;;15.47;;
23222;SDS011;11780;13.904;100.620;2023-05-18T15:20:01;19.63;;;15.87;;
23222;SDS011;11780;13.904;100.620;2023-05-18T15:22:33;16.55;;;14.98;;
23222;SDS011;11780;13.904;100.620;2023-05-18T15:25:04;22.33;;;16.40;;
23222;SDS011;11780;13.904;100.620;2023-05-18T15:27:37;18.65;;;16.23;;
23222;SDS011;11780;13.904;100.620;2023-05-18T15:30:07;18.17;;;15.50;;
23222;SDS011;11780;13.904;100.620;2023-05-18T15:32:40;21.25;;;16.92;;